Time;durP1;ratioP1;P1;durP2;ratioP2;P2;SDS_P1;SDS_P2;PMS_P1;PMS_P2;Temp;Humidity;BMP_temperature;BMP_pressure;BME280_temperature;BME280_humidity;BME280_pressure;Samples;Min_cycle;Max_cycle;Signal;HPM_P1;HPM_P2
2022/09/10 00:01:32;;;;;;;1.40;0.70;;;22.30;51.00;;;;;;4898438;29;20433;-51
2022/09/10 00:04:02;;;;;;;1.00;0.50;;;22.30;51.00;;;;;;4915595;29;20486;-51
2022/09/10 00:06:34;;;;;;;0.80;0.60;;;22.30;51.00;;;;;;4910251;29;20969;-51
2022/09/10 00:09:03;;;;;;;0.70;0.50;;;22.30;51.00;;;;;;4907257;29;21053;-50
2022/09/10 00:11:31;;;;;;;0.93;0.40;;;22.30;51.00;;;;;;4881797;29;20484;-51
2022/09/10 00:14:02;;;;;;;1.47;0.50;;;22.30;51.00;;;;;;4912104;29;20543;-50
2022/09/10 00:16:32;;;;;;;1.23;0.50;;;22.30;51.00;;;;;;4898619;29;20430;-50
2022/09/10 00:19:01;;;;;;;0.70;0.50;;;22.30;51.10;;;;;;4895010;29;20505;-50
2022/09/10 00:21:29;;;;;;;1.00;0.50;;;22.30;51.10;;;;;;4909338;29;20458;-51
2022/09/10 00:24:02;;;;;;;2.13;0.70;;;22.30;51.10;;;;;;4913546;29;21044;-50
2022/09/10 00:26:33;;;;;;;1.90;0.60;;;22.30;51.00;;;;;;4912179;29;20456;-50
2022/09/10 00:29:02;;;;;;;1.83;0.50;;;22.20;51.00;;;;;;4913168;29;20509;-50
2022/09/10 00:31:32;;;;;;;1.27;0.80;;;22.20;51.10;;;;;;4914379;29;21020;-50
2022/09/10 00:34:02;;;;;;;2.20;0.53;;;22.20;51.00;;;;;;4907807;29;20541;-50
2022/09/10 00:36:34;;;;;;;1.10;0.70;;;22.20;51.00;;;;;;4913846;29;20485;-50
2022/09/10 00:39:07;;;;;;;0.80;0.40;;;22.20;51.10;;;;;;4911901;29;20857;-51
2022/09/10 00:41:38;;;;;;;1.27;0.60;;;22.20;51.30;;;;;;4911858;29;20953;-54
2022/09/10 00:44:27;;;;;;;1.00;0.50;;;22.20;51.00;;;;;;4896746;29;20776;-50
2022/09/10 00:47:01;;;;;;;0.90;0.50;;;22.20;51.00;;;;;;4894390;29;20546;-50
2022/09/10 00:49:35;;;;;;;1.47;0.63;;;22.20;51.00;;;;;;4893825;29;20477;-51
2022/09/10 00:52:05;;;;;;;0.67;0.60;;;22.20;51.00;;;;;;4910764;29;20472;-51
2022/09/10 00:54:37;;;;;;;1.00;0.60;;;22.20;51.00;;;;;;4913012;29;20840;-50
2022/09/10 00:57:11;;;;;;;1.37;0.60;;;22.20;51.00;;;;;;4909843;29;20462;-51
2022/09/10 01:00:02;;;;;;;1.53;0.50;;;22.20;51.00;;;;;;4920711;29;20437;-51
2022/09/10 01:02:43;;;;;;;1.60;0.60;;;22.20;51.00;;;;;;4942255;23;20547;-71
2022/09/10 01:05:12;;;;;;;504.00;57.33;;;22.20;51.00;;;;;;4930574;29;20444;-72
2022/09/10 01:07:41;;;;;;;3.30;1.20;;;22.20;51.10;;;;;;4916062;29;20451;-72
2022/09/10 01:10:17;;;;;;;1.07;0.70;;;22.20;51.00;;;;;;4946469;29;20636;-71
2022/09/10 01:13:16;;;;;;;1.17;0.63;;;22.20;50.90;;;;;;4947393;29;21074;-71
2022/09/10 01:15:52;;;;;;;1.20;0.50;;;22.20;51.00;;;;;;4942037;29;20466;-71
2022/09/10 01:18:33;;;;;;;0.90;0.60;;;22.20;52.20;;;;;;4930207;29;21010;-71
2022/09/10 01:21:14;;;;;;;2.93;0.50;;;22.20;51.00;;;;;;4947141;29;20448;-72
2022/09/10 01:24:28;;;;;;;2.00;0.70;;;22.20;50.90;;;;;;4945330;28;20570;-72
2022/09/10 01:27:25;;;;;;;0.60;0.40;;;22.20;50.90;;;;;;4920494;29;20932;-72
2022/09/10 01:30:03;;;;;;;1.13;0.50;;;22.20;50.90;;;;;;4927201;29;20471;-71
2022/09/10 01:32:40;;;;;;;0.50;0.40;;;22.20;50.90;;;;;;4926916;29;20955;-72
2022/09/10 01:35:15;;;;;;;1.10;0.70;;;22.20;50.90;;;;;;4929588;29;20471;-72
2022/09/10 01:37:47;;;;;;;1.10;0.67;;;22.20;50.90;;;;;;4947093;28;21023;-72
2022/09/10 01:40:17;;;;;;;1.17;0.70;;;22.20;50.90;;;;;;4930621;29;20864;-71
2022/09/10 01:42:46;;;;;;;1.17;0.70;;;22.20;51.00;;;;;;4945680;29;20491;-72
2022/09/10 01:45:16;;;;;;;0.93;0.60;;;22.20;51.00;;;;;;4923168;29;20456;-71
2022/09/10 01:48:17;;;;;;;0.60;0.50;;;22.10;50.80;;;;;;4931238;29;20526;-72
2022/09/10 01:50:56;;;;;;;2.27;0.70;;;22.10;50.90;;;;;;4937327;29;20603;-71
2022/09/10 01:53:49;;;;;;;0.77;0.60;;;22.20;51.00;;;;;;4930003;29;20907;-71
2022/09/10 01:56:29;;;;;;;2.00;1.07;;;22.10;50.90;;;;;;4943330;29;20554;-71
2022/09/10 01:59:04;;;;;;;1.07;0.50;;;22.10;50.80;;;;;;4930725;29;20483;-71
2022/09/10 02:01:45;;;;;;;1.03;0.60;;;22.20;51.00;;;;;;4936214;29;20526;-72
2022/09/10 02:04:16;;;;;;;0.70;0.60;;;22.10;50.80;;;;;;4930633;29;20474;-71
2022/09/10 02:06:48;;;;;;;0.83;0.50;;;22.10;50.80;;;;;;4946159;29;20450;-72
2022/09/10 02:09:19;;;;;;;0.70;0.50;;;22.10;50.80;;;;;;4931200;28;20962;-71
2022/09/10 02:11:49;;;;;;;1.17;0.50;;;22.10;50.80;;;;;;4946524;29;20448;-71
2022/09/10 02:14:45;;;;;;;0.90;0.50;;;22.10;50.80;;;;;;4943409;29;20487;-72
2022/09/10 02:17:29;;;;;;;1.00;0.50;;;22.10;50.80;;;;;;4933974;29;20439;-72
2022/09/10 02:20:00;;;;;;;1.27;0.60;;;22.10;50.80;;;;;;4927304;29;20852;-71
2022/09/10 02:22:32;;;;;;;3.07;1.00;;;22.10;50.80;;;;;;4933576;29;20522;-71
2022/09/10 02:25:00;;;;;;;0.87;0.63;;;22.10;50.80;;;;;;4948774;29;20514;-71
2022/09/10 02:27:31;;;;;;;1.70;0.53;;;22.10;50.80;;;;;;4928592;29;20513;-72
2022/09/10 02:30:01;;;;;;;1.07;0.47;;;;;;;;;;4932399;29;20852;-72
2022/09/10 02:32:32;;;;;;;0.77;0.73;;;22.10;49.70;;;;;;4942799;28;20455;-72
2022/09/10 02:35:00;;;;;;;1.83;0.50;;;22.10;50.70;;;;;;4932054;29;20454;-72
2022/09/10 02:37:29;;;;;;;0.97;0.70;;;22.10;50.70;;;;;;4949850;29;21194;-72
2022/09/10 02:39:57;;;;;;;1.07;0.80;;;22.10;50.70;;;;;;4930078;29;20468;-71
2022/09/10 02:42:25;;;;;;;1.73;0.90;;;22.10;50.70;;;;;;4926407;29;20478;-71
2022/09/10 02:44:55;;;;;;;1.43;0.90;;;22.10;50.70;;;;;;4953635;29;20460;-72
2022/09/10 02:47:23;;;;;;;1.60;0.60;;;22.10;50.70;;;;;;4971190;28;20492;-72
2022/09/10 02:49:55;;;;;;;1.10;0.70;;;22.10;50.60;;;;;;4957929;29;21193;-71
2022/09/10 02:52:24;;;;;;;0.97;0.60;;;22.10;50.70;;;;;;4944104;28;20971;-71
2022/09/10 02:54:53;;;;;;;1.80;0.70;;;22.00;50.60;;;;;;4932547;29;20551;-72
2022/09/10 02:57:21;;;;;;;1.27;0.60;;;22.10;50.70;;;;;;4949411;29;20437;-72
2022/09/10 02:59:50;;;;;;;1.07;0.57;;;22.10;50.70;;;;;;4950332;29;20463;-71
2022/09/10 03:02:19;;;;;;;0.70;0.60;;;22.00;50.60;;;;;;4932001;29;20947;-71
2022/09/10 03:04:47;;;;;;;1.53;0.43;;;22.00;50.60;;;;;;4932090;28;20479;-72
2022/09/10 03:07:19;;;;;;;2.40;0.67;;;22.10;50.80;;;;;;4932786;29;20454;-72
2022/09/10 03:09:48;;;;;;;1.20;0.70;;;22.00;50.70;;;;;;4937729;29;20849;-72
2022/09/10 03:12:17;;;;;;;2.37;0.77;;;22.00;50.70;;;;;;4948738;29;21053;-72
2022/09/10 03:14:46;;;;;;;1.40;0.67;;;22.00;50.60;;;;;;4930715;29;20901;-71
2022/09/10 03:17:14;;;;;;;0.93;0.60;;;22.00;50.60;;;;;;4944581;29;20440;-72
2022/09/10 03:19:43;;;;;;;1.77;1.10;;;22.00;50.60;;;;;;4928550;29;20467;-72
2022/09/10 03:22:11;;;;;;;0.70;0.57;;;22.00;50.70;;;;;;4933574;29;20443;-72
2022/09/10 03:24:42;;;;;;;1.20;0.70;;;22.00;50.70;;;;;;4927686;29;21334;-72
2022/09/10 03:27:10;;;;;;;0.83;0.50;;;22.00;51.90;;;;;;4931167;29;20460;-71
2022/09/10 03:29:39;;;;;;;1.60;0.70;;;22.00;50.80;;;;;;4946700;29;20444;-72
2022/09/10 03:32:08;;;;;;;0.87;0.50;;;22.00;50.70;;;;;;4928361;29;20953;-72
2022/09/10 03:34:39;;;;;;;1.20;0.73;;;22.00;50.80;;;;;;4932404;29;20464;-72
2022/09/10 03:37:07;;;;;;;1.50;1.27;;;22.00;50.80;;;;;;4926321;29;20448;-72
2022/09/10 03:39:36;;;;;;;0.60;0.60;;;22.00;50.90;;;;;;4929236;29;20460;-71
2022/09/10 03:42:06;;;;;;;1.73;0.87;;;22.00;50.80;;;;;;4936315;29;20453;-72
2022/09/10 03:44:35;;;;;;;1.20;0.87;;;22.00;50.90;;;;;;4949007;29;20529;-72
2022/09/10 03:47:03;;;;;;;0.97;0.60;;;21.90;50.80;;;;;;4932968;29;20478;-72
2022/09/10 03:49:33;;;;;;;0.60;0.50;;;21.90;50.90;;;;;;4924135;29;20460;-71
2022/09/10 03:52:02;;;;;;;1.10;1.00;;;21.90;50.90;;;;;;4941059;29;20436;-69
2022/09/10 03:54:36;;;;;;;1.40;0.73;;;21.90;51.10;;;;;;4943945;29;20469;-69
2022/09/10 03:57:07;;;;;;;1.27;0.70;;;21.90;51.10;;;;;;4925387;29;20455;-69
2022/09/10 03:59:38;;;;;;;1.30;0.70;;;21.90;51.30;;;;;;4926825;29;20480;-69
2022/09/10 04:02:06;;;;;;;1.00;0.43;;;21.90;51.10;;;;;;4933078;29;20989;-69
2022/09/10 04:04:36;;;;;;;1.57;0.90;;;21.90;51.10;;;;;;4928265;29;20480;-69
2022/09/10 04:07:05;;;;;;;1.60;0.53;;;21.90;51.20;;;;;;4930361;29;20463;-69
2022/09/10 04:09:34;;;;;;;0.97;0.53;;;21.90;51.10;;;;;;4947175;29;20468;-69
2022/09/10 04:12:03;;;;;;;0.80;0.53;;;21.80;51.00;;;;;;4920690;29;20449;-69
2022/09/10 04:14:35;;;;;;;1.97;0.57;;;21.90;51.10;;;;;;4932432;29;20800;-69
2022/09/10 04:17:04;;;;;;;3.13;0.90;;;21.90;51.20;;;;;;4939617;28;20499;-69
2022/09/10 04:19:34;;;;;;;1.60;0.50;;;21.80;51.00;;;;;;4940943;29;20878;-71
2022/09/10 04:22:02;;;;;;;1.00;0.80;;;21.90;51.00;;;;;;4938198;29;20440;-71
2022/09/10 04:24:32;;;;;;;0.90;0.73;;;21.90;51.10;;;;;;4928247;29;20808;-72
2022/09/10 04:27:01;;;;;;;1.57;0.87;;;21.90;51.00;;;;;;4931516;29;20452;-71
2022/09/10 04:29:30;;;;;;;1.70;0.80;;;21.90;51.10;;;;;;4932805;29;20507;-71
2022/09/10 04:32:00;;;;;;;3.03;0.80;;;21.80;51.00;;;;;;4961376;29;20447;-72
2022/09/10 04:34:31;;;;;;;1.03;0.93;;;21.90;51.20;;;;;;4934120;29;20511;-72
2022/09/10 04:37:00;;;;;;;0.87;0.60;;;21.90;51.00;;;;;;4933398;29;20470;-71
2022/09/10 04:39:28;;;;;;;1.07;0.60;;;21.80;51.00;;;;;;4917053;29;20459;-72
2022/09/10 04:41:57;;;;;;;0.83;0.57;;;21.80;51.00;;;;;;4926122;29;20447;-72
2022/09/10 04:44:26;;;;;;;1.67;0.80;;;21.80;51.00;;;;;;4923919;29;20479;-72
2022/09/10 04:46:55;;;;;;;1.40;0.90;;;21.80;51.00;;;;;;4932972;29;20821;-72
2022/09/10 04:49:25;;;;;;;1.23;0.80;;;21.80;51.00;;;;;;4931666;29;21078;-72
2022/09/10 04:51:53;;;;;;;1.47;0.80;;;21.80;51.00;;;;;;4933271;29;20802;-71
2022/09/10 04:54:22;;;;;;;1.10;0.60;;;21.80;51.00;;;;;;4904665;29;21037;-72
2022/09/10 04:56:51;;;;;;;1.97;1.17;;;21.80;50.90;;;;;;4930358;29;20447;-71
2022/09/10 04:59:19;;;;;;;1.67;0.50;;;21.80;51.00;;;;;;4930413;29;20479;-71
2022/09/10 05:01:49;;;;;;;2.20;0.93;;;21.80;51.00;;;;;;4933087;29;20499;-71
2022/09/10 05:04:18;;;;;;;1.47;0.70;;;21.80;51.00;;;;;;4926178;29;21098;-72
2022/09/10 05:06:49;;;;;;;0.83;0.60;;;21.80;51.00;;;;;;4947898;29;20479;-72
2022/09/10 05:09:17;;;;;;;0.80;0.67;;;21.80;51.00;;;;;;4932151;29;20966;-72
2022/09/10 05:11:48;;;;;;;1.03;0.80;;;21.80;51.00;;;;;;4931966;29;20963;-71
2022/09/10 05:14:19;;;;;;;1.37;0.80;;;21.80;51.00;;;;;;4931547;29;20518;-72
2022/09/10 05:16:47;;;;;;;1.57;0.73;;;21.70;51.00;;;;;;4942558;29;20892;-72
2022/09/10 05:19:17;;;;;;;0.60;0.50;;;21.80;51.00;;;;;;4930817;28;20824;-71
2022/09/10 05:21:59;;;;;;;1.00;0.80;;;21.80;51.00;;;;;;4925786;29;20514;-71
2022/09/10 05:24:28;;;;;;;0.90;0.70;;;21.80;51.00;;;;;;4937012;29;20468;-72
2022/09/10 05:26:58;;;;;;;0.93;0.63;;;21.80;51.10;;;;;;4916578;29;20456;-72
2022/09/10 05:29:26;;;;;;;1.30;0.93;;;21.80;51.00;;;;;;4928279;28;20504;-71
2022/09/10 05:31:55;;;;;;;1.93;0.60;;;21.80;51.00;;;;;;4941522;29;20819;-72
2022/09/10 05:34:25;;;;;;;2.23;1.10;;;21.70;51.00;;;;;;4928332;29;21051;-71
2022/09/10 05:36:54;;;;;;;2.87;0.67;;;21.70;51.00;;;;;;4932161;29;20451;-72
2022/09/10 05:39:24;;;;;;;1.83;0.60;;;21.70;51.00;;;;;;4923648;29;20483;-72
2022/09/10 05:41:54;;;;;;;1.47;0.60;;;21.70;51.00;;;;;;4946076;29;20478;-71
2022/09/10 05:44:23;;;;;;;1.50;0.67;;;21.70;51.00;;;;;;4930206;29;21105;-71
2022/09/10 05:46:52;;;;;;;0.70;0.67;;;21.70;51.00;;;;;;4940377;29;20447;-71
2022/09/10 05:49:21;;;;;;;0.83;0.70;;;21.70;51.00;;;;;;4927348;29;20490;-71
2022/09/10 05:51:50;;;;;;;1.37;0.90;;;21.70;51.00;;;;;;4927293;29;20439;-72
2022/09/10 05:54:19;;;;;;;1.70;0.73;;;21.70;51.00;;;;;;4946550;28;20493;-71
2022/09/10 05:56:50;;;;;;;1.93;0.87;;;21.70;51.00;;;;;;4930708;29;20444;-69
2022/09/10 05:59:19;;;;;;;1.53;0.80;;;21.70;51.00;;;;;;4930995;29;20459;-68
2022/09/10 06:01:51;;;;;;;1.13;0.80;;;21.70;51.00;;;;;;4944675;29;21064;-68
2022/09/10 06:04:21;;;;;;;0.90;0.60;;;21.70;51.00;;;;;;4926856;29;20881;-68
2022/09/10 06:06:50;;;;;;;0.90;0.70;;;21.70;51.10;;;;;;4941407;29;20456;-68
2022/09/10 06:09:19;;;;;;;3.60;0.80;;;21.70;51.00;;;;;;4930384;29;20499;-68
2022/09/10 06:11:58;;;;;;;0.80;0.67;;;21.70;51.10;;;;;;4946335;29;20452;-68
2022/09/10 06:14:26;;;;;;;0.97;0.77;;;21.60;51.00;;;;;;4932361;29;20555;-68
2022/09/10 06:16:55;;;;;;;1.27;0.70;;;21.60;51.00;;;;;;4948956;29;20498;-68
2022/09/10 06:19:25;;;;;;;1.40;0.70;;;21.60;51.10;;;;;;4929237;28;20539;-68
2022/09/10 06:21:55;;;;;;;3.30;0.90;;;21.60;51.10;;;;;;4928945;29;20463;-69
2022/09/10 06:24:24;;;;;;;1.70;1.10;;;21.60;50.90;;;;;;4907814;29;20844;-67
2022/09/10 06:26:56;;;;;;;1.87;1.07;;;21.50;51.60;;;;;;4930169;29;20526;-68
2022/09/10 06:29:29;;;;;;;1.23;0.97;;;21.50;52.10;;;;;;4917673;29;20478;-68
2022/09/10 06:31:59;;;;;;;1.80;0.97;;;21.60;52.20;;;;;;4932058;29;20487;-68
2022/09/10 06:34:27;;;;;;;1.67;1.10;;;21.60;52.10;;;;;;4929864;29;20625;-68
2022/09/10 06:36:57;;;;;;;1.40;1.20;;;21.60;51.90;;;;;;4947399;29;20471;-68
2022/09/10 06:39:27;;;;;;;3.13;1.17;;;21.60;51.80;;;;;;4912052;28;20502;-68
2022/09/10 06:42:00;;;;;;;1.27;1.10;;;21.60;51.90;;;;;;4932324;29;20506;-68
2022/09/10 06:44:45;;;;;;;2.37;1.10;;;21.60;51.80;;;;;;4929328;29;20518;-68
2022/09/10 06:47:22;;;;;;;1.13;1.00;;;21.60;51.80;;;;;;4935576;29;20880;-68
2022/09/10 06:50:11;;;;;;;1.53;1.10;;;21.60;51.70;;;;;;4930560;29;21003;-68
2022/09/10 06:52:41;;;;;;;1.60;1.10;;;21.60;51.70;;;;;;4934633;29;20455;-68
2022/09/10 06:55:13;;;;;;;2.50;0.70;;;21.60;52.90;;;;;;4927365;29;20570;-68
2022/09/10 06:57:47;;;;;;;1.53;1.20;;;21.60;51.80;;;;;;4922809;29;20444;-68
2022/09/10 07:00:19;;;;;;;1.37;0.53;;;21.60;51.80;;;;;;4933800;29;20503;-68
2022/09/10 07:02:52;;;;;;;1.60;0.90;;;21.50;51.60;;;;;;4927365;29;20480;-68
2022/09/10 07:05:22;;;;;;;1.60;1.00;;;21.50;51.80;;;;;;4933272;29;20986;-68
2022/09/10 07:07:51;;;;;;;1.97;1.07;;;21.50;51.80;;;;;;4934672;29;20479;-68
2022/09/10 07:10:20;;;;;;;2.27;1.17;;;21.50;51.80;;;;;;4931059;29;20460;-68
2022/09/10 07:12:49;;;;;;;1.73;1.10;;;21.50;51.80;;;;;;4929523;29;20484;-71
2022/09/10 07:15:21;;;;;;;1.53;0.80;;;21.50;53.10;;;;;;4933913;29;20510;-71
2022/09/10 07:17:50;;;;;;;3.20;0.90;;;21.50;51.80;;;;;;4948109;29;20473;-71
2022/09/10 07:20:22;;;;;;;1.27;1.10;;;21.50;51.80;;;;;;4931397;29;20451;-71
2022/09/10 07:22:52;;;;;;;1.20;1.10;;;21.50;51.80;;;;;;4934282;29;20574;-71
2022/09/10 07:25:21;;;;;;;2.23;0.97;;;21.50;52.00;;;;;;4949265;29;20471;-71
2022/09/10 07:27:54;;;;;;;1.93;1.20;;;21.50;52.10;;;;;;4949771;29;20436;-71
2022/09/10 07:30:28;;;;;;;2.07;0.90;;;21.50;51.80;;;;;;4931117;29;20480;-71
2022/09/10 07:32:56;;;;;;;1.50;1.00;;;21.50;51.90;;;;;;4926355;29;20486;-71
2022/09/10 07:35:27;;;;;;;1.63;0.87;;;21.50;52.10;;;;;;4933431;29;20502;-71
2022/09/10 07:37:56;;;;;;;1.93;0.97;;;21.50;53.20;;;;;;4932644;29;20436;-71
2022/09/10 07:40:26;;;;;;;1.53;1.03;;;21.40;52.00;;;;;;4913061;29;20866;-71
2022/09/10 07:42:55;;;;;;;3.43;1.33;;;21.40;52.10;;;;;;4933536;29;20467;-71
2022/09/10 07:45:25;;;;;;;2.93;0.87;;;21.40;52.10;;;;;;4933663;29;21037;-71
2022/09/10 07:47:54;;;;;;;1.17;0.90;;;21.40;52.70;;;;;;4930198;29;20452;-71
2022/09/10 07:50:23;;;;;;;1.10;0.97;;;21.40;52.10;;;;;;4933409;29;20440;-71
2022/09/10 07:52:53;;;;;;;1.80;1.00;;;21.40;52.40;;;;;;4948427;28;20850;-71
2022/09/10 07:55:24;;;;;;;1.70;0.90;;;21.40;52.20;;;;;;4931732;29;20546;-71
2022/09/10 07:57:54;;;;;;;1.97;1.13;;;21.40;52.40;;;;;;4925328;29;20837;-68
2022/09/10 08:00:29;;;;;;;1.83;1.10;;;21.40;52.60;;;;;;4932798;29;20435;-68
2022/09/10 08:03:04;;;;;;;1.27;1.10;;;21.40;52.30;;;;;;4920951;29;20591;-68
2022/09/10 08:05:33;;;;;;;1.23;0.83;;;21.40;52.60;;;;;;4919711;29;20555;-68
2022/09/10 08:08:02;;;;;;;1.20;1.00;;;21.40;52.60;;;;;;4929081;29;20439;-68
2022/09/10 08:10:31;;;;;;;1.03;0.90;;;21.40;52.60;;;;;;4944651;29;20475;-68
2022/09/10 08:12:59;;;;;;;1.83;0.90;;;21.40;52.40;;;;;;4929778;29;20901;-69
2022/09/10 08:15:29;;;;;;;2.30;0.93;;;21.40;52.70;;;;;;4923370;29;20456;-68
2022/09/10 08:18:00;;;;;;;1.07;0.97;;;21.40;52.80;;;;;;4939007;29;20578;-68
2022/09/10 08:20:28;;;;;;;1.80;0.80;;;21.40;52.90;;;;;;4945959;29;20436;-68
2022/09/10 08:22:58;;;;;;;1.57;1.00;;;21.40;52.90;;;;;;4937556;28;20884;-69
2022/09/10 08:25:26;;;;;;;5.10;1.20;;;21.40;53.00;;;;;;4947147;29;20566;-69
2022/09/10 08:27:57;;;;;;;2.10;0.90;;;21.40;53.00;;;;;;4933758;29;20671;-70
2022/09/10 08:30:26;;;;;;;1.67;1.03;;;21.40;53.10;;;;;;4933812;29;20447;-69
2022/09/10 08:32:56;;;;;;;1.17;1.07;;;21.30;53.10;;;;;;4949019;28;20983;-69
2022/09/10 08:35:24;;;;;;;2.50;1.00;;;21.40;53.30;;;;;;4930903;29;20471;-69
2022/09/10 08:37:53;;;;;;;2.10;1.20;;;21.30;53.20;;;;;;4950268;29;20444;-72
2022/09/10 08:40:22;;;;;;;2.43;1.30;;;21.30;53.50;;;;;;4924979;29;20506;-72
2022/09/10 08:42:55;;;;;;;2.03;1.30;;;21.30;53.50;;;;;;4932608;29;20494;-71
2022/09/10 08:45:29;;;;;;;1.80;1.10;;;21.30;53.40;;;;;;4933461;29;20456;-72
2022/09/10 08:48:05;;;;;;;1.90;1.30;;;21.30;57.80;;;;;;4932372;29;21005;-72
2022/09/10 08:50:41;;;;;;;1.33;1.03;;;21.30;55.40;;;;;;4946686;29;20444;-72
2022/09/10 08:53:24;;;;;;;1.37;1.07;;;21.30;54.30;;;;;;4927940;29;20508;-72
2022/09/10 08:55:56;;;;;;;2.20;1.17;;;21.30;53.70;;;;;;4944813;29;20512;-72
2022/09/10 08:58:30;;;;;;;3.73;1.70;;;21.30;53.70;;;;;;4932823;29;20881;-72
2022/09/10 09:01:04;;;;;;;1.50;1.10;;;21.30;53.60;;;;;;4930829;29;20466;-72
2022/09/10 09:03:40;;;;;;;2.73;1.83;;;21.30;53.60;;;;;;4927771;29;20479;-72
2022/09/10 09:06:24;;;;;;;1.33;1.20;;;21.30;54.00;;;;;;4929662;29;20886;-71
2022/09/10 09:08:53;;;;;;;1.87;1.70;;;21.30;53.50;;;;;;4935956;28;20559;-71
2022/09/10 09:11:35;;;;;;;3.73;1.90;;;21.30;54.70;;;;;;4928698;29;20461;-71
2022/09/10 09:14:32;;;;;;;4.30;2.70;;;21.30;54.50;;;;;;4922908;29;20531;-71
2022/09/10 09:17:27;;;;;;;4.03;2.27;;;21.30;55.60;;;;;;4947936;29;20478;-71
2022/09/10 09:20:09;;;;;;;3.03;2.20;;;21.20;56.20;;;;;;4946714;29;20444;-72
2022/09/10 09:22:48;;;;;;;3.20;1.90;;;21.30;56.40;;;;;;4933044;29;20615;-72
2022/09/10 09:25:24;;;;;;;2.40;2.20;;;21.20;56.00;;;;;;4924805;29;20463;-72
2022/09/10 09:27:55;;;;;;;4.60;1.80;;;21.20;55.70;;;;;;4929805;29;20471;-69
2022/09/10 09:30:31;;;;;;;2.20;1.90;;;21.20;55.50;;;;;;4941383;29;20438;-68
2022/09/10 09:33:12;;;;;;;2.40;1.47;;;21.20;55.40;;;;;;4945560;29;20773;-69
2022/09/10 09:35:47;;;;;;;2.50;1.83;;;21.20;55.10;;;;;;4932399;29;20462;-68
2022/09/10 09:38:23;;;;;;;3.13;1.67;;;21.20;55.30;;;;;;4923765;29;20475;-68
2022/09/10 09:40:56;;;;;;;3.93;1.87;;;21.20;55.30;;;;;;4931917;29;20552;-68
2022/09/10 09:43:37;;;;;;;2.93;1.90;;;21.20;55.40;;;;;;4947886;28;20844;-68
2022/09/10 09:46:13;;;;;;;2.00;1.57;;;21.20;55.50;;;;;;4945647;29;20452;-68
2022/09/10 09:48:46;;;;;;;2.90;2.27;;;21.20;55.30;;;;;;4931222;28;20487;-69
2022/09/10 09:51:19;;;;;;;3.10;1.93;;;21.20;55.30;;;;;;4941813;29;20439;-68
2022/09/10 09:53:49;;;;;;;1.80;1.70;;;21.20;55.60;;;;;;4931885;29;21291;-68
2022/09/10 09:56:39;;;;;;;2.87;2.13;;;21.20;55.50;;;;;;4939448;29;20447;-69
2022/09/10 09:59:10;;;;;;;2.67;1.70;;;21.20;55.70;;;;;;4949022;29;20467;-68
2022/09/10 10:01:42;;;;;;;2.20;2.00;;;21.20;55.80;;;;;;4943521;29;20598;-68
2022/09/10 10:04:21;;;;;;;2.83;2.30;;;21.10;55.90;;;;;;4918377;29;20476;-69
2022/09/10 10:06:56;;;;;;;3.13;2.00;;;21.10;55.90;;;;;;4932926;29;20430;-68
2022/09/10 10:09:27;;;;;;;2.73;1.83;;;21.10;55.70;;;;;;4941780;29;20489;-68
2022/09/10 10:11:58;;;;;;;1.70;1.60;;;21.10;55.80;;;;;;4930439;29;20967;-68
2022/09/10 10:14:40;;;;;;;4.67;1.80;;;21.10;55.80;;;;;;4930307;29;20734;-71
2022/09/10 10:17:29;;;;;;;3.70;2.10;;;21.10;55.60;;;;;;4931715;29;20887;-71
2022/09/10 10:20:04;;;;;;;1.77;1.67;;;21.10;55.80;;;;;;4933513;29;20495;-71
2022/09/10 10:22:34;;;;;;;2.17;1.83;;;21.10;55.90;;;;;;4946098;29;20447;-71
2022/09/10 10:25:04;;;;;;;2.90;2.03;;;21.10;55.90;;;;;;4949670;29;20463;-71
2022/09/10 10:27:36;;;;;;;2.03;1.60;;;21.10;56.10;;;;;;4945616;28;20467;-71
2022/09/10 10:30:21;;;;;;;1.80;1.47;;;21.00;56.00;;;;;;4951913;29;21076;-71
2022/09/10 10:32:55;;;;;;;2.60;2.10;;;21.10;55.90;;;;;;4917702;29;20486;-71
2022/09/10 10:35:33;;;;;;;2.73;2.20;;;21.10;55.90;;;;;;4934911;29;20550;-71
2022/09/10 10:38:29;;;;;;;2.37;2.17;;;21.10;55.80;;;;;;4933026;29;20471;-68
2022/09/10 10:41:13;;;;;;;2.80;1.70;;;21.10;55.90;;;;;;4933050;29;20479;-68
2022/09/10 10:43:52;;;;;;;2.47;1.97;;;21.10;55.80;;;;;;4949111;28;20479;-68
2022/09/10 10:46:22;;;;;;;4.70;1.83;;;21.10;55.90;;;;;;4935012;29;20451;-68
2022/09/10 10:49:05;;;;;;;2.30;1.70;;;21.10;55.60;;;;;;4915185;29;20891;-68
2022/09/10 10:51:44;;;;;;;3.73;1.93;;;21.10;55.80;;;;;;4930910;29;20534;-68
2022/09/10 10:54:36;;;;;;;1.97;1.77;;;21.10;55.70;;;;;;4941362;28;20583;-68
2022/09/10 10:57:20;;;;;;;2.17;1.70;;;21.10;55.80;;;;;;4945931;29;20534;-68
2022/09/10 10:59:59;;;;;;;2.13;1.73;;;21.10;55.90;;;;;;4951117;29;20554;-68
2022/09/10 11:02:38;;;;;;;1.27;1.17;;;21.10;55.50;;;;;;4927779;29;20515;-68
2022/09/10 11:05:20;;;;;;;1.80;1.70;;;21.10;55.80;;;;;;4926425;29;20535;-68
2022/09/10 11:07:49;;;;;;;3.33;1.73;;;21.00;55.80;;;;;;4931804;29;20475;-69
2022/09/10 11:10:23;;;;;;;3.67;1.47;;;21.10;55.60;;;;;;4932514;29;20456;-68
2022/09/10 11:13:01;;;;;;;2.83;1.60;;;21.10;55.60;;;;;;4949929;29;20444;-68
2022/09/10 11:15:33;;;;;;;1.97;1.87;;;21.00;55.80;;;;;;4948127;28;20468;-68
2022/09/10 11:18:12;;;;;;;3.43;1.77;;;21.10;55.90;;;;;;4943858;28;21170;-68
2022/09/10 11:20:44;;;;;;;3.43;2.20;;;21.10;55.90;;;;;;4941747;29;20535;-68
2022/09/10 11:23:24;;;;;;;1.50;1.40;;;21.00;55.90;;;;;;4923641;29;20998;-69
2022/09/10 11:25:59;;;;;;;3.67;1.90;;;21.00;55.70;;;;;;4928072;28;20470;-68
2022/09/10 11:28:31;;;;;;;3.40;2.30;;;21.00;56.10;;;;;;4917351;29;20223;-69
2022/09/10 11:31:04;;;;;;;4.10;1.77;;;21.00;55.90;;;;;;4935017;29;20455;-68
2022/09/10 11:33:38;;;;;;;7.03;2.40;;;21.10;56.20;;;;;;4921567;29;20476;-68
2022/09/10 11:36:12;;;;;;;3.90;2.40;;;21.00;56.30;;;;;;4938298;29;20461;-68
2022/09/10 11:38:49;;;;;;;3.07;1.90;;;21.00;56.20;;;;;;4949647;28;20609;-68
2022/09/10 11:41:22;;;;;;;4.37;2.30;;;21.00;56.10;;;;;;4926222;29;20463;-68
2022/09/10 11:43:57;;;;;;;4.90;2.30;;;21.00;56.30;;;;;;4932174;29;20490;-68
2022/09/10 11:46:31;;;;;;;7.30;2.07;;;21.00;56.10;;;;;;4949357;29;20443;-68
2022/09/10 11:49:09;;;;;;;3.10;2.40;;;21.00;56.10;;;;;;4923127;29;21081;-68
2022/09/10 11:51:38;;;;;;;2.37;2.10;;;21.00;56.20;;;;;;4943646;29;20465;-68
2022/09/10 11:54:13;;;;;;;4.00;2.43;;;21.00;56.20;;;;;;4932902;29;20468;-68
2022/09/10 11:56:58;;;;;;;2.33;2.13;;;21.00;56.20;;;;;;4943119;29;20451;-68
2022/09/10 11:59:45;;;;;;;3.57;2.33;;;21.00;56.30;;;;;;4949326;29;20468;-68
2022/09/10 12:02:45;;;;;;;3.40;2.47;;;21.00;56.20;;;;;;4949840;29;20438;-68
2022/09/10 12:05:26;;;;;;;2.20;2.07;;;21.00;56.40;;;;;;4934024;29;21007;-68
2022/09/10 12:08:04;;;;;;;2.87;2.30;;;21.00;56.20;;;;;;4931852;29;20442;-68
2022/09/10 12:10:38;;;;;;;2.37;2.17;;;21.00;56.20;;;;;;4928322;29;20444;-71
2022/09/10 12:13:13;;;;;;;3.67;2.47;;;21.00;56.50;;;;;;4928638;29;21079;-71
2022/09/10 12:15:50;;;;;;;2.57;2.37;;;21.00;56.30;;;;;;4936167;29;20542;-71
2022/09/10 12:18:24;;;;;;;2.40;2.20;;;21.00;56.30;;;;;;4930111;29;20443;-72
2022/09/10 12:20:55;;;;;;;2.00;1.83;;;21.00;56.20;;;;;;4948688;29;20462;-71
2022/09/10 12:23:30;;;;;;;2.53;2.33;;;21.00;56.40;;;;;;4932945;29;20554;-71
2022/09/10 12:26:09;;;;;;;6.03;3.37;;;21.00;56.40;;;;;;4931890;29;20475;-72
2022/09/10 12:29:03;;;;;;;4.57;2.27;;;21.00;56.60;;;;;;4945365;28;20560;-71
2022/09/10 12:32:15;;;;;;;3.03;2.80;;;21.00;56.90;;;;;;4899152;29;20439;-72
2022/09/10 12:34:49;;;;;;;3.53;3.10;;;21.00;57.30;;;;;;4945569;29;20464;-72
2022/09/10 12:37:26;;;;;;;3.63;3.30;;;21.00;57.30;;;;;;4932846;28;20507;-72
2022/09/10 12:40:31;;;;;;;5.33;3.37;;;21.00;57.70;;;;;;4931378;29;20444;-72
2022/09/10 12:43:38;;;;;;;5.03;3.57;;;21.00;57.90;;;;;;4918669;29;20968;-72
2022/09/10 12:46:18;;;;;;;3.87;3.57;;;21.00;57.80;;;;;;4949946;29;20439;-72
2022/09/10 12:48:48;;;;;;;3.70;3.30;;;21.00;58.00;;;;;;4948017;29;20920;-72
2022/09/10 12:51:33;;;;;;;7.33;4.07;;;21.00;57.90;;;;;;4949337;29;20435;-69
2022/09/10 12:54:20;;;;;;;4.20;3.63;;;21.00;57.90;;;;;;4945076;28;20501;-69
2022/09/10 12:57:13;;;;;;;3.33;2.80;;;21.00;58.10;;;;;;4931769;29;20498;-68
2022/09/10 13:00:17;;;;;;;6.10;3.70;;;21.00;58.40;;;;;;4941397;29;21054;-73
2022/09/10 13:02:53;;;;;;;3.83;3.40;;;21.00;58.10;;;;;;4931932;28;20450;-72
2022/09/10 13:05:28;;;;;;;5.03;3.67;;;21.00;58.30;;;;;;4935683;29;20854;-72
2022/09/10 13:08:10;;;;;;;4.17;3.87;;;21.00;58.30;;;;;;4931544;29;20571;-72
2022/09/10 13:10:41;;;;;;;3.87;3.57;;;21.00;58.30;;;;;;4935589;28;20456;-72
2022/09/10 13:13:29;;;;;;;4.47;3.20;;;21.00;58.50;;;;;;4930281;29;20444;-72
2022/09/10 13:15:57;;;;;;;4.10;3.80;;;21.00;58.60;;;;;;4933137;29;20443;-68
2022/09/10 13:18:30;;;;;;;4.10;3.47;;;21.00;59.00;;;;;;4924209;29;20475;-68
2022/09/10 13:20:58;;;;;;;4.17;3.77;;;21.00;58.70;;;;;;4928010;29;20556;-68
2022/09/10 13:23:47;;;;;;;3.73;3.43;;;20.90;59.10;;;;;;4918529;29;20983;-68